createdAt,value
2018-06-24T00:02:43.752Z,3.37
2018-06-24T00:05:14.759Z,2.80
2018-06-24T00:07:45.866Z,3.37
2018-06-24T00:10:17.356Z,3.20
2018-06-24T00:12:48.491Z,3.07
2018-06-24T00:15:19.546Z,3.03
2018-06-24T00:17:50.914Z,3.53
2018-06-24T00:20:21.898Z,3.30
2018-06-24T00:22:52.911Z,3.20
2018-06-24T00:25:23.833Z,3.37
2018-06-24T00:27:54.666Z,3.30
2018-06-24T00:30:25.681Z,3.23
2018-06-24T00:32:56.975Z,3.40
2018-06-24T00:35:28.027Z,3.10
2018-06-24T00:37:59.090Z,3.40
2018-06-24T00:40:30.500Z,3.13
2018-06-24T00:43:01.714Z,3.20
2018-06-24T00:45:32.826Z,3.30
2018-06-24T00:48:03.939Z,3.27
2018-06-24T00:50:35.150Z,3.20
2018-06-24T00:53:06.011Z,3.37
2018-06-24T00:55:37.209Z,3.30
2018-06-24T00:58:09.293Z,3.30
2018-06-24T01:00:40.541Z,4.00
2018-06-24T01:03:11.622Z,3.70
2018-06-24T01:05:42.779Z,3.47
2018-06-24T01:08:13.974Z,3.83
2018-06-24T01:10:45.436Z,3.77
2018-06-24T01:13:16.673Z,3.97
2018-06-24T01:15:47.994Z,4.03
2018-06-24T01:18:18.954Z,4.30
2018-06-24T01:20:50.235Z,3.90
2018-06-24T01:23:21.606Z,3.93
2018-06-24T01:25:52.696Z,4.10
2018-06-24T01:28:23.765Z,4.73
2018-06-24T01:30:54.618Z,4.40
2018-06-24T01:33:25.658Z,3.77
2018-06-24T01:35:57.081Z,4.13
2018-06-24T01:38:29.458Z,3.80
2018-06-24T01:41:00.605Z,4.37
2018-06-24T01:43:31.543Z,4.00
2018-06-24T01:46:02.767Z,3.70
2018-06-24T01:48:33.889Z,4.10
2018-06-24T01:51:05.021Z,4.23
2018-06-24T01:53:36.296Z,3.80
2018-06-24T01:56:07.318Z,4.17
2018-06-24T01:58:38.580Z,3.60
2018-06-24T02:01:10.490Z,4.03
2018-06-24T02:03:41.827Z,3.50
2018-06-24T02:06:13.019Z,3.70
2018-06-24T02:08:44.153Z,3.83
2018-06-24T02:11:15.141Z,4.13
2018-06-24T02:13:46.188Z,3.60
2018-06-24T02:16:17.276Z,3.90
2018-06-24T02:18:48.306Z,3.93
2018-06-24T02:21:19.218Z,3.47
2018-06-24T02:23:50.529Z,3.67
2018-06-24T02:26:21.402Z,3.50
2018-06-24T02:28:52.419Z,3.17
2018-06-24T02:31:23.515Z,3.70
2018-06-24T02:33:54.863Z,3.50
2018-06-24T02:36:25.586Z,2.83
2018-06-24T02:38:56.591Z,2.97
2018-06-24T02:41:27.548Z,3.70
2018-06-24T02:43:58.654Z,2.97
2018-06-24T02:46:29.694Z,2.87
2018-06-24T02:49:00.842Z,3.13
2018-06-24T02:51:32.524Z,2.93
2018-06-24T02:54:03.590Z,2.80
2018-06-24T02:56:34.599Z,3.47
2018-06-24T02:59:05.856Z,3.30
2018-06-24T03:01:36.873Z,3.73
2018-06-24T03:04:09.538Z,3.73
2018-06-24T03:06:40.655Z,3.20
2018-06-24T03:09:12.422Z,6.50
2018-06-24T03:11:43.830Z,4.03
2018-06-24T03:14:15.796Z,3.83
2018-06-24T03:16:47.158Z,3.33
2018-06-24T03:19:18.182Z,4.10
2018-06-24T03:21:49.357Z,4.13
2018-06-24T03:24:20.343Z,4.57
2018-06-24T03:26:51.447Z,4.43
2018-06-24T03:29:22.995Z,5.10
2018-06-24T03:31:54.280Z,4.90
2018-06-24T03:34:25.564Z,4.70
2018-06-24T03:36:56.679Z,5.30
2018-06-24T03:39:27.822Z,5.30
2018-06-24T03:41:59.001Z,5.30
2018-06-24T03:44:30.851Z,5.30
2018-06-24T03:47:01.825Z,5.27
2018-06-24T03:49:33.159Z,5.60
2018-06-24T03:52:04.114Z,5.47
2018-06-24T03:54:35.161Z,4.90
2018-06-24T03:57:06.646Z,5.40
2018-06-24T03:59:37.656Z,5.60
2018-06-24T04:02:09.006Z,5.40
2018-06-24T04:04:40.459Z,5.30
2018-06-24T04:07:11.405Z,5.77
2018-06-24T04:09:42.719Z,5.43
2018-06-24T04:12:13.858Z,5.30
2018-06-24T04:14:44.973Z,5.47
2018-06-24T04:17:16.506Z,5.67
2018-06-24T04:19:47.779Z,5.50
2018-06-24T04:22:18.691Z,6.13
2018-06-24T04:24:49.975Z,5.80
2018-06-24T04:27:21.975Z,5.97
2018-06-24T04:29:53.238Z,5.33
2018-06-24T04:32:24.324Z,5.40
2018-06-24T04:34:55.467Z,5.70
2018-06-24T04:37:26.312Z,5.57
2018-06-24T04:39:57.354Z,6.50
2018-06-24T04:42:28.518Z,5.63
2018-06-24T04:44:59.526Z,4.80
2018-06-24T04:47:30.778Z,5.53
2018-06-24T04:50:01.830Z,5.00
2018-06-24T04:52:33.269Z,5.23
2018-06-24T04:55:04.469Z,4.90
2018-06-24T04:57:35.298Z,6.00
2018-06-24T05:00:06.687Z,6.20
2018-06-24T05:02:37.311Z,6.60
2018-06-24T05:05:08.109Z,6.10
2018-06-24T05:07:38.927Z,6.10
2018-06-24T05:10:09.747Z,5.47
2018-06-24T05:12:40.527Z,6.00
2018-06-24T05:15:11.703Z,6.58
2018-06-24T05:17:43.451Z,5.30
2018-06-24T05:20:14.646Z,5.60
2018-06-24T05:22:45.785Z,7.47
2018-06-24T05:25:16.791Z,6.67
2018-06-24T05:27:48.055Z,6.30
2018-06-24T05:30:19.262Z,6.97
2018-06-24T05:32:50.268Z,6.37
2018-06-24T05:35:21.346Z,6.60
2018-06-24T05:37:52.513Z,7.20
2018-06-24T05:40:23.459Z,7.83
2018-06-24T05:42:54.532Z,6.10
2018-06-24T05:45:25.779Z,5.87
2018-06-24T05:47:57.186Z,5.60
2018-06-24T05:50:28.287Z,6.23
2018-06-24T05:52:59.385Z,6.15
2018-06-24T05:55:30.546Z,5.72
2018-06-24T05:58:01.738Z,5.28
2018-06-24T06:00:32.618Z,5.30
2018-06-24T06:03:04.196Z,5.70
2018-06-24T06:05:35.339Z,5.03
2018-06-24T06:08:06.696Z,5.05
2018-06-24T06:10:37.448Z,5.00
2018-06-24T06:13:08.625Z,5.20
2018-06-24T06:15:39.363Z,5.20
2018-06-24T06:18:09.949Z,5.08
2018-06-24T06:20:40.854Z,5.50
2018-06-24T06:23:11.621Z,5.53
2018-06-24T06:25:42.474Z,6.23
2018-06-24T06:28:13.467Z,5.78
2018-06-24T06:30:44.771Z,6.00
2018-06-24T06:33:15.406Z,6.20
2018-06-24T06:35:46.155Z,6.67
2018-06-24T06:38:16.894Z,6.75
2018-06-24T06:40:47.602Z,5.80
2018-06-24T06:43:18.372Z,5.80
2018-06-24T06:45:49.221Z,5.95
2018-06-24T06:48:20.588Z,5.75
2018-06-24T06:50:51.692Z,6.25
2018-06-24T06:53:22.824Z,6.35
2018-06-24T06:55:54.352Z,5.80
2018-06-24T06:58:25.314Z,5.72
2018-06-24T07:00:56.108Z,6.00
2018-06-24T07:03:27.482Z,6.33
2018-06-24T07:05:58.477Z,6.80
2018-06-24T07:08:29.628Z,5.80
2018-06-24T07:11:00.981Z,6.50
2018-06-24T07:13:32.027Z,5.70
2018-06-24T07:16:03.172Z,5.67
2018-06-24T07:18:34.362Z,5.28
2018-06-24T07:21:05.714Z,5.62
2018-06-24T07:23:36.633Z,5.60
2018-06-24T07:26:07.720Z,5.80
2018-06-24T07:28:39.722Z,6.20
2018-06-24T07:31:10.904Z,5.97
2018-06-24T07:33:42.009Z,6.00
2018-06-24T07:36:13.535Z,6.00
2018-06-24T07:38:44.774Z,6.27
2018-06-24T07:41:16.080Z,5.83
2018-06-24T07:43:47.317Z,5.90
2018-06-24T07:46:18.571Z,6.37
2018-06-24T07:48:50.547Z,6.43
2018-06-24T07:51:21.729Z,6.83
2018-06-24T07:53:52.952Z,6.60
2018-06-24T07:56:24.328Z,6.70
2018-06-24T07:58:55.879Z,6.87
2018-06-24T08:01:27.095Z,7.10
2018-06-24T08:03:58.165Z,7.00
2018-06-24T08:06:29.395Z,6.60
2018-06-24T08:09:00.544Z,6.70
2018-06-24T08:11:32.898Z,6.90
2018-06-24T08:14:04.421Z,7.70
2018-06-24T08:16:35.569Z,7.50
2018-06-24T08:19:06.680Z,8.27
2018-06-24T08:21:38.182Z,8.10
2018-06-24T08:24:09.498Z,8.43
2018-06-24T08:26:40.785Z,8.07
2018-06-24T08:29:11.681Z,8.80
2018-06-24T08:31:42.881Z,8.03
2018-06-24T08:34:14.215Z,8.00
2018-06-24T08:36:45.599Z,7.97
2018-06-24T08:39:16.676Z,8.00
2018-06-24T08:41:47.966Z,7.43
2018-06-24T08:44:19.107Z,8.03
2018-06-24T08:46:50.516Z,7.77
2018-06-24T08:49:21.746Z,6.87
2018-06-24T08:51:53.210Z,7.47
2018-06-24T08:54:24.435Z,6.90
2018-06-24T08:56:55.530Z,6.77
2018-06-24T08:59:26.545Z,6.67
2018-06-24T09:01:57.803Z,7.10
2018-06-24T09:04:28.941Z,6.53
2018-06-24T09:07:00.972Z,6.93
2018-06-24T09:09:32.056Z,6.83
2018-06-24T09:12:03.601Z,7.13
2018-06-24T09:14:34.746Z,6.97
2018-06-24T09:17:05.832Z,7.00
2018-06-24T09:19:37.861Z,6.90
2018-06-24T09:22:09.127Z,6.83
2018-06-24T09:24:40.647Z,7.20
2018-06-24T09:27:12.087Z,7.27
2018-06-24T09:29:42.953Z,7.67
2018-06-24T09:32:14.031Z,7.47
2018-06-24T09:34:45.199Z,6.80
2018-06-24T09:37:17.115Z,6.70
2018-06-24T09:39:48.273Z,6.90
2018-06-24T09:42:19.400Z,6.90
2018-06-24T09:44:51.610Z,7.00
2018-06-24T09:47:23.638Z,7.53
2018-06-24T09:49:54.726Z,7.17
2018-06-24T09:52:25.967Z,6.80
2018-06-24T09:54:57.020Z,6.97
2018-06-24T09:57:29.299Z,7.03
2018-06-24T10:00:00.480Z,7.27
2018-06-24T10:02:32.283Z,6.77
2018-06-24T10:05:03.124Z,7.00
2018-06-24T10:07:35.053Z,7.50
2018-06-24T10:10:05.960Z,6.50
2018-06-24T10:12:37.036Z,6.93
2018-06-24T10:15:08.763Z,7.07
2018-06-24T10:17:40.478Z,7.40
2018-06-24T10:20:11.597Z,6.87
2018-06-24T10:22:43.178Z,7.20
2018-06-24T10:25:14.274Z,7.00
2018-06-24T10:27:45.493Z,6.97
2018-06-24T10:30:16.881Z,6.80
2018-06-24T10:32:48.326Z,6.80
2018-06-24T10:35:20.263Z,6.70
2018-06-24T10:37:51.383Z,7.07
2018-06-24T10:40:22.592Z,6.80
2018-06-24T10:42:53.949Z,7.10
2018-06-24T10:45:25.223Z,6.93
2018-06-24T10:47:56.324Z,7.27
2018-06-24T10:50:27.652Z,6.80
2018-06-24T10:52:58.622Z,6.60
2018-06-24T10:55:29.980Z,6.83
2018-06-24T10:58:01.163Z,6.57
2018-06-24T11:00:32.347Z,6.73
2018-06-24T11:03:03.844Z,7.10
2018-06-24T11:05:34.722Z,6.77
2018-06-24T11:08:05.831Z,6.77
2018-06-24T11:10:36.866Z,6.50
2018-06-24T11:13:08.734Z,7.33
2018-06-24T11:15:39.778Z,6.57
2018-06-24T11:18:10.942Z,6.43
2018-06-24T11:20:41.917Z,6.40
2018-06-24T11:23:13.319Z,6.37
2018-06-24T11:25:44.513Z,6.77
2018-06-24T11:28:15.721Z,6.47
2018-06-24T11:30:46.651Z,6.17
2018-06-24T11:33:17.861Z,6.03
2018-06-24T11:35:49.049Z,6.57
2018-06-24T11:38:20.544Z,6.07
2018-06-24T11:40:51.512Z,7.00
2018-06-24T11:43:23.250Z,6.50
2018-06-24T11:45:54.462Z,6.10
2018-06-24T11:48:25.537Z,8.07
2018-06-24T11:50:56.723Z,7.07
2018-06-24T11:53:27.957Z,6.70
2018-06-24T11:55:59.359Z,6.63
2018-06-24T11:58:30.576Z,6.50
2018-06-24T12:01:01.668Z,6.53
2018-06-24T12:03:32.900Z,6.50
2018-06-24T12:06:04.324Z,6.30
2018-06-24T12:08:35.343Z,6.83
2018-06-24T12:11:06.818Z,6.27
2018-06-24T12:13:38.063Z,6.10
2018-06-24T12:16:08.951Z,6.33
2018-06-24T12:18:40.188Z,6.50
2018-06-24T12:21:11.188Z,6.30
2018-06-24T12:23:42.221Z,6.20
2018-06-24T12:26:13.512Z,6.00
2018-06-24T12:28:44.701Z,5.87
2018-06-24T12:31:16.016Z,6.20
2018-06-24T12:33:47.401Z,6.13
2018-06-24T12:36:18.656Z,6.63
2018-06-24T12:38:49.683Z,6.40
2018-06-24T12:41:20.863Z,6.30
2018-06-24T12:43:51.868Z,6.17
2018-06-24T12:46:22.989Z,6.27
2018-06-24T12:48:54.774Z,6.30
2018-06-24T12:51:26.500Z,6.63
2018-06-24T12:53:57.758Z,6.90
2018-06-24T12:56:28.956Z,6.07
2018-06-24T12:59:00.152Z,6.30
2018-06-24T13:01:31.367Z,6.67
2018-06-24T13:04:02.895Z,5.77
2018-06-24T13:06:33.980Z,6.00
2018-06-24T13:09:06.885Z,6.20
2018-06-24T13:11:37.769Z,6.00
2018-06-24T13:14:08.931Z,6.30
2018-06-24T13:16:39.993Z,6.10
2018-06-24T13:19:11.076Z,5.83
2018-06-24T13:21:42.293Z,5.47
2018-06-24T13:24:13.664Z,6.70
2018-06-24T13:26:44.880Z,6.40
2018-06-24T13:29:16.270Z,6.50
2018-06-24T13:31:47.362Z,6.53
2018-06-24T13:34:18.678Z,7.13
2018-06-24T13:36:50.010Z,6.00
2018-06-24T13:39:20.944Z,6.60
2018-06-24T13:41:52.175Z,6.30
2018-06-24T13:44:23.674Z,6.40
2018-06-24T13:46:55.255Z,6.40
2018-06-24T13:49:26.659Z,6.83
2018-06-24T13:51:58.015Z,6.23
2018-06-24T13:54:29.217Z,6.00
2018-06-24T13:57:00.509Z,6.07
2018-06-24T13:59:31.532Z,5.90
2018-06-24T14:02:02.978Z,6.10
2018-06-24T14:04:34.153Z,6.17
2018-06-24T14:07:06.102Z,5.63
2018-06-24T14:09:37.524Z,6.10
2018-06-24T14:12:09.687Z,6.00
2018-06-24T14:14:40.953Z,5.80
2018-06-24T14:17:13.155Z,5.90
2018-06-24T14:19:44.425Z,6.20
2018-06-24T14:22:15.892Z,6.13
2018-06-24T14:24:48.097Z,6.10
2018-06-24T14:27:19.241Z,6.30
2018-06-24T14:29:50.936Z,5.80
2018-06-24T14:32:22.455Z,6.17
2018-06-24T14:34:53.826Z,6.30
2018-06-24T14:37:25.799Z,6.17
2018-06-24T14:39:57.020Z,6.13
2018-06-24T14:42:28.585Z,5.83
2018-06-24T14:45:00.191Z,6.20
2018-06-24T14:47:31.585Z,5.83
2018-06-24T14:50:02.943Z,5.60
2018-06-24T14:52:33.985Z,5.53
2018-06-24T14:55:05.352Z,5.40
2018-06-24T14:57:37.053Z,5.57
2018-06-24T15:00:08.395Z,5.60
2018-06-24T15:02:42.157Z,5.80
2018-06-24T15:05:13.898Z,6.03
2018-06-24T15:07:45.682Z,5.40
2018-06-24T15:10:18.265Z,5.60
2018-06-24T15:12:49.367Z,6.00
2018-06-24T15:15:20.510Z,5.60
2018-06-24T15:17:51.878Z,5.87
2018-06-24T15:20:24.691Z,5.77
2018-06-24T15:22:55.939Z,5.90
2018-06-24T15:25:27.257Z,6.10
2018-06-24T15:27:58.581Z,5.63
2018-06-24T15:30:29.924Z,5.63
2018-06-24T15:33:01.400Z,5.57
2018-06-24T15:35:32.711Z,5.70
2018-06-24T15:38:03.638Z,5.57
2018-06-24T15:40:34.810Z,5.50
2018-06-24T15:43:06.332Z,5.70
2018-06-24T15:45:37.590Z,5.47
2018-06-24T15:48:08.802Z,5.50
2018-06-24T15:50:41.054Z,5.60
2018-06-24T15:53:12.658Z,5.13
2018-06-24T15:55:44.482Z,5.93
2018-06-24T15:58:15.860Z,5.90
2018-06-24T16:00:47.200Z,5.73
2018-06-24T16:03:18.965Z,5.90
2018-06-24T16:05:50.111Z,5.93
2018-06-24T16:08:21.295Z,5.80
2018-06-24T16:10:52.832Z,6.07
2018-06-24T16:13:24.193Z,5.50
2018-06-24T16:15:55.675Z,5.50
2018-06-24T16:18:26.972Z,5.43
2018-06-24T16:20:59.120Z,5.40
2018-06-24T16:23:30.912Z,5.40
2018-06-24T16:26:02.206Z,5.77
2018-06-24T16:28:33.272Z,5.23
2018-06-24T16:31:04.386Z,5.57
2018-06-24T16:33:35.584Z,5.40
2018-06-24T16:36:07.275Z,5.40
2018-06-24T16:38:38.510Z,5.60
2018-06-24T16:41:09.757Z,5.20
2018-06-24T16:43:42.026Z,5.17
2018-06-24T16:46:13.287Z,5.63
2018-06-24T16:48:44.667Z,5.13
2018-06-24T16:51:16.175Z,5.03
2018-06-24T16:53:47.474Z,5.60
2018-06-24T16:56:18.623Z,5.37
2018-06-24T16:58:49.931Z,5.40
2018-06-24T17:01:21.111Z,5.10
2018-06-24T17:03:52.736Z,5.43
2018-06-24T17:06:24.028Z,5.30
2018-06-24T17:08:55.433Z,5.57
2018-06-24T17:11:27.516Z,5.30
2018-06-24T17:13:59.449Z,4.87
2018-06-24T17:16:30.804Z,4.93
2018-06-24T17:19:01.986Z,5.33
2018-06-24T17:21:33.524Z,5.20
2018-06-24T17:24:05.050Z,4.77
2018-06-24T17:26:36.256Z,5.13
2018-06-24T17:29:07.448Z,5.10
2018-06-24T17:31:38.624Z,5.17
2018-06-24T17:34:10.697Z,5.37
2018-06-24T17:36:42.006Z,4.90
2018-06-24T17:39:13.696Z,5.40
2018-06-24T17:41:46.864Z,4.80
2018-06-24T17:44:18.739Z,4.90
2018-06-24T17:46:50.198Z,5.40
2018-06-24T17:49:21.352Z,5.43
2018-06-24T17:51:52.710Z,5.30
2018-06-24T17:54:23.928Z,5.20
2018-06-24T17:56:55.247Z,4.93
2018-06-24T17:59:26.276Z,5.33
2018-06-24T18:01:57.446Z,5.17
2018-06-24T18:04:28.801Z,4.87
2018-06-24T18:07:00.189Z,5.57
2018-06-24T18:09:31.421Z,5.77
2018-06-24T18:12:02.782Z,5.40
2018-06-24T18:14:34.461Z,5.20
2018-06-24T18:17:05.799Z,5.50
2018-06-24T18:19:37.120Z,5.50
2018-06-24T18:22:08.545Z,5.30
2018-06-24T18:24:39.842Z,5.17
2018-06-24T18:27:10.878Z,5.50
2018-06-24T18:29:42.028Z,5.50
2018-06-24T18:32:13.367Z,5.73
2018-06-24T18:34:44.579Z,5.40
2018-06-24T18:37:15.845Z,5.00
2018-06-24T18:39:47.073Z,5.30
2018-06-24T18:42:18.262Z,5.77
2018-06-24T18:44:49.398Z,5.10
2018-06-24T18:47:20.771Z,5.20
2018-06-24T18:49:52.109Z,5.20
2018-06-24T18:52:23.601Z,5.03
2018-06-24T18:54:54.731Z,6.00
2018-06-24T18:57:26.020Z,5.37
2018-06-24T18:59:56.988Z,5.00
2018-06-24T19:02:29.325Z,5.30
2018-06-24T19:05:00.563Z,5.30
2018-06-24T19:07:31.412Z,5.53
2018-06-24T19:10:02.556Z,5.50
2018-06-24T19:12:34.379Z,5.23
2018-06-24T19:15:05.739Z,5.10
2018-06-24T19:17:42.484Z,5.30
2018-06-24T19:20:13.683Z,5.20
2018-06-24T19:22:44.816Z,5.27
2018-06-24T19:25:15.954Z,5.00
2018-06-24T19:27:47.457Z,4.70
2018-06-24T19:30:21.646Z,5.40
2018-06-24T19:32:52.730Z,5.13
2018-06-24T19:35:23.796Z,4.80
2018-06-24T19:37:54.681Z,4.43
2018-06-24T19:40:25.673Z,4.80
2018-06-24T19:42:56.883Z,4.90
2018-06-24T19:45:28.153Z,4.63
2018-06-24T19:48:00.181Z,4.60
2018-06-24T19:50:31.470Z,4.93
2018-06-24T19:53:03.464Z,5.00
2018-06-24T19:55:34.500Z,4.50
2018-06-24T19:58:05.775Z,4.50
2018-06-24T20:00:36.877Z,4.20
2018-06-24T20:03:08.907Z,4.77
2018-06-24T20:05:40.185Z,4.37
2018-06-24T20:08:11.287Z,4.50
2018-06-24T20:10:42.411Z,4.73
2018-06-24T20:13:13.875Z,4.50
2018-06-24T20:15:44.887Z,4.60
2018-06-24T20:18:16.045Z,5.00
2018-06-24T20:20:47.075Z,4.70
2018-06-24T20:23:25.135Z,4.67
2018-06-24T20:25:56.223Z,4.83
2018-06-24T20:28:27.458Z,4.83
2018-06-24T20:30:58.945Z,5.10
2018-06-24T20:33:30.151Z,4.87
2018-06-24T20:36:01.244Z,4.50
2018-06-24T20:38:32.365Z,4.83
2018-06-24T20:41:03.597Z,4.57
2018-06-24T20:43:34.694Z,4.50
2018-06-24T20:46:06.240Z,4.40
2018-06-24T20:48:37.271Z,4.90
2018-06-24T20:51:08.798Z,4.90
2018-06-24T20:53:39.975Z,4.60
2018-06-24T20:56:11.198Z,4.73
2018-06-24T20:58:42.557Z,4.90
2018-06-24T21:01:14.770Z,4.63
2018-06-24T21:03:45.922Z,5.00
2018-06-24T21:06:17.058Z,4.77
2018-06-24T21:08:50.368Z,4.30
2018-06-24T21:11:21.516Z,4.33
2018-06-24T21:13:52.883Z,4.60
2018-06-24T21:16:24.065Z,4.50
2018-06-24T21:18:56.528Z,4.80
2018-06-24T21:21:27.729Z,4.60
2018-06-24T21:23:58.722Z,4.43
2018-06-24T21:26:29.935Z,4.80
2018-06-24T21:29:01.026Z,4.90
2018-06-24T21:31:32.981Z,5.17
2018-06-24T21:34:04.492Z,4.67
2018-06-24T21:36:35.840Z,4.93
2018-06-24T21:39:09.272Z,5.47
2018-06-24T21:41:40.372Z,4.73
2018-06-24T21:44:11.454Z,4.53
2018-06-24T21:46:43.513Z,4.87
2018-06-24T21:49:14.647Z,5.63
2018-06-24T21:51:45.797Z,5.10
2018-06-24T21:54:17.085Z,5.50
2018-06-24T21:56:49.425Z,5.17
2018-06-24T21:59:21.737Z,5.73
2018-06-24T22:01:52.901Z,5.40
2018-06-24T22:04:24.330Z,5.67
2018-06-24T22:06:55.675Z,5.50
2018-06-24T22:09:26.692Z,5.40
2018-06-24T22:11:58.345Z,5.70
2018-06-24T22:14:29.597Z,5.07
2018-06-24T22:17:00.733Z,5.50
2018-06-24T22:19:32.071Z,5.20
2018-06-24T22:22:03.084Z,5.77
2018-06-24T22:24:34.205Z,5.73
2018-06-24T22:27:06.161Z,4.93
2018-06-24T22:29:37.208Z,4.80
2018-06-24T22:32:08.345Z,4.57
2018-06-24T22:34:40.638Z,4.63
2018-06-24T22:37:11.527Z,5.30
2018-06-24T22:39:42.502Z,5.00
2018-06-24T22:42:13.530Z,4.90
2018-06-24T22:44:44.892Z,4.90
2018-06-24T22:47:17.001Z,4.60
2018-06-24T22:49:48.340Z,4.10
2018-06-24T22:52:19.633Z,4.90
2018-06-24T22:54:51.045Z,4.67
2018-06-24T22:57:22.257Z,4.70
2018-06-24T23:00:05.587Z,4.90
2018-06-24T23:02:36.470Z,4.27
2018-06-24T23:05:08.303Z,4.70
2018-06-24T23:07:39.998Z,4.50
2018-06-24T23:10:12.359Z,4.20
2018-06-24T23:12:43.749Z,4.43
2018-06-24T23:15:14.904Z,4.20
2018-06-24T23:17:46.126Z,4.43
2018-06-24T23:20:17.489Z,4.50
2018-06-24T23:22:48.705Z,3.90
2018-06-24T23:25:21.774Z,4.13
2018-06-24T23:27:53.676Z,4.00
2018-06-24T23:30:25.002Z,4.33
2018-06-24T23:32:56.703Z,4.00
2018-06-24T23:35:27.834Z,3.97
2018-06-24T23:37:59.251Z,3.90
2018-06-24T23:40:30.370Z,4.00
2018-06-24T23:43:02.502Z,4.20
2018-06-24T23:45:34.520Z,3.73
2018-06-24T23:48:05.883Z,4.00
2018-06-24T23:50:37.189Z,3.80
2018-06-24T23:53:08.794Z,3.60
2018-06-24T23:55:40.135Z,4.00
2018-06-24T23:58:11.198Z,3.90
